Time;durP1;ratioP1;P1;durP2;ratioP2;P2;SDS_P1;SDS_P2;PMS_P1;PMS_P2;Temp;Humidity;BMP_temperature;BMP_pressure;BME280_temperature;BME280_humidity;BME280_pressure;Samples;Min_cycle;Max_cycle;Signal;HPM_P1;HPM_P2
2023/05/29 00:00:09;;;;;;;2.55;1.35;;;17.50;56.60;;;;;;5014319;28;20604;-55
2023/05/29 00:02:39;;;;;;;2.00;1.38;;;17.60;56.70;;;;;;5014384;28;20212;-51
2023/05/29 00:05:11;;;;;;;1.88;1.10;;;17.60;56.70;;;;;;5014340;28;20197;-55
2023/05/29 00:07:42;;;;;;;1.33;1.13;;;17.60;56.70;;;;;;5014480;28;20284;-52
2023/05/29 00:10:15;;;;;;;3.47;1.42;;;17.60;56.80;;;;;;5013409;28;20203;-49
2023/05/29 00:12:46;;;;;;;1.48;1.25;;;17.60;56.70;;;;;;5013052;28;20303;-51
2023/05/29 00:15:17;;;;;;;1.33;1.17;;;17.60;56.70;;;;;;5013722;28;20204;-53
2023/05/29 00:17:47;;;;;;;1.20;1.10;;;17.60;56.70;;;;;;5013774;28;20221;-54
2023/05/29 00:20:18;;;;;;;1.63;0.90;;;17.70;56.70;;;;;;5013048;28;20205;-51
2023/05/29 00:22:49;;;;;;;1.75;1.30;;;17.70;56.70;;;;;;5013522;28;20220;-51
2023/05/29 00:25:22;;;;;;;2.50;1.40;;;17.70;56.70;;;;;;5013489;28;20201;-52
2023/05/29 00:27:52;;;;;;;1.60;1.30;;;17.70;56.70;;;;;;5013909;28;20205;-50
2023/05/29 00:30:23;;;;;;;1.58;1.17;;;17.70;56.70;;;;;;5013663;28;20692;-52
2023/05/29 00:32:54;;;;;;;3.25;1.30;;;17.70;56.80;;;;;;5013407;28;20216;-50
2023/05/29 00:35:24;;;;;;;2.85;1.40;;;17.70;56.80;;;;;;5013353;28;20228;-50
2023/05/29 00:37:55;;;;;;;3.00;1.60;;;17.70;57.60;;;;;;5010014;28;20236;-53
2023/05/29 00:40:28;;;;;;;3.10;1.30;;;17.70;57.90;;;;;;5013132;28;20197;-52
2023/05/29 00:42:58;;;;;;;1.88;1.23;;;17.80;57.80;;;;;;5012458;28;20216;-51
2023/05/29 00:45:30;;;;;;;2.40;1.50;;;17.80;57.80;;;;;;5013340;28;20197;-50
2023/05/29 00:48:01;;;;;;;1.77;1.30;;;17.90;57.80;;;;;;5013753;28;20199;-51
2023/05/29 00:50:32;;;;;;;2.70;1.33;;;17.90;57.70;;;;;;5012332;28;20653;-51
2023/05/29 00:53:04;;;;;;;1.83;1.33;;;17.90;57.60;;;;;;5012596;28;20213;-52
2023/05/29 00:55:37;;;;;;;2.08;1.17;;;17.90;57.60;;;;;;5012905;28;20661;-54
2023/05/29 00:58:09;;;;;;;3.20;1.42;;;17.90;57.70;;;;;;5013169;28;20224;-50
2023/05/29 01:00:40;;;;;;;2.05;1.40;;;18.00;57.60;;;;;;5012295;28;20224;-51
2023/05/29 01:03:14;;;;;;;2.47;1.45;;;18.00;57.60;;;;;;5012962;28;20200;-54
2023/05/29 01:05:45;;;;;;;2.88;1.58;;;18.00;57.60;;;;;;5012564;28;20823;-51
2023/05/29 01:08:16;;;;;;;2.65;1.38;;;18.00;57.60;;;;;;5013146;28;20280;-52
2023/05/29 01:10:50;;;;;;;3.58;1.67;;;18.10;57.60;;;;;;5012538;28;20232;-54
2023/05/29 01:13:22;;;;;;;2.53;1.63;;;18.10;57.70;;;;;;5012425;28;20208;-52
2023/05/29 01:16:00;;;;;;;2.35;1.42;;;18.10;57.70;;;;;;5012833;28;20254;-54
2023/05/29 01:18:42;;;;;;;4.53;1.77;;;18.10;57.80;;;;;;5012356;28;20231;-54
2023/05/29 01:21:21;;;;;;;4.45;1.65;;;18.10;57.80;;;;;;5012103;28;20314;-52
2023/05/29 01:24:04;;;;;;;2.03;1.30;;;18.10;57.80;;;;;;5010441;28;20200;-52
2023/05/29 01:26:54;;;;;;;4.13;1.52;;;18.20;57.80;;;;;;5012234;28;20208;-54
2023/05/29 01:29:28;;;;;;;3.22;1.65;;;18.20;57.90;;;;;;5011480;28;20207;-52
2023/05/29 01:32:01;;;;;;;2.67;1.40;;;18.20;57.90;;;;;;5012210;28;20215;-54
2023/05/29 01:34:32;;;;;;;4.93;1.85;;;18.30;57.90;;;;;;5011794;28;20569;-52
2023/05/29 01:37:03;;;;;;;4.10;1.75;;;18.30;58.00;;;;;;5012126;28;20200;-53
2023/05/29 01:39:35;;;;;;;3.55;1.50;;;18.30;58.00;;;;;;5011679;28;20192;-52
2023/05/29 01:42:08;;;;;;;2.20;1.55;;;18.30;58.00;;;;;;5012034;28;20568;-55
2023/05/29 01:44:40;;;;;;;3.60;1.60;;;18.30;58.00;;;;;;5012110;28;20664;-52
2023/05/29 01:47:11;;;;;;;2.65;1.60;;;18.40;58.10;;;;;;5011094;28;20254;-53
2023/05/29 01:49:43;;;;;;;4.25;1.55;;;18.40;58.00;;;;;;5011565;28;20610;-55
2023/05/29 01:52:15;;;;;;;4.38;1.60;;;18.40;58.00;;;;;;5010945;28;20576;-53
2023/05/29 01:54:45;;;;;;;4.00;1.65;;;18.40;58.00;;;;;;5011916;28;20204;-50
2023/05/29 01:57:19;;;;;;;2.92;1.60;;;18.50;58.10;;;;;;5012735;28;20211;-51
2023/05/29 01:59:51;;;;;;;3.35;1.60;;;18.50;58.20;;;;;;5012214;28;20711;-54
2023/05/29 02:02:23;;;;;;;2.75;1.73;;;18.50;58.20;;;;;;5011860;28;20220;-54
2023/05/29 02:04:54;;;;;;;4.38;1.92;;;18.50;58.20;;;;;;5011696;28;20224;-55
2023/05/29 02:07:25;;;;;;;2.78;1.73;;;18.60;58.20;;;;;;5011926;28;20208;-55
2023/05/29 02:09:55;;;;;;;3.50;1.48;;;18.60;58.20;;;;;;5011240;28;20197;-51
2023/05/29 02:12:28;;;;;;;3.42;1.40;;;18.60;58.10;;;;;;5011931;28;20331;-54
2023/05/29 02:14:58;;;;;;;4.85;1.88;;;18.60;58.10;;;;;;5009166;28;20197;-55
2023/05/29 02:17:29;;;;;;;2.08;1.20;;;18.70;58.10;;;;;;5011919;28;20650;-51
2023/05/29 02:20:00;;;;;;;3.67;1.55;;;18.70;58.10;;;;;;5011737;28;20205;-51
2023/05/29 02:22:30;;;;;;;3.75;1.60;;;18.70;58.00;;;;;;5011595;28;20267;-53
2023/05/29 02:25:01;;;;;;;2.78;1.38;;;18.70;58.00;;;;;;5011971;28;20239;-53
2023/05/29 02:27:33;;;;;;;4.13;1.73;;;18.80;58.00;;;;;;5012020;28;20200;-52
2023/05/29 02:30:05;;;;;;;3.72;1.50;;;18.80;57.90;;;;;;5012000;28;20200;-52
2023/05/29 02:32:35;;;;;;;2.95;1.50;;;18.80;58.00;;;;;;5011835;28;20766;-55
2023/05/29 02:35:07;;;;;;;3.42;1.60;;;18.80;58.00;;;;;;5012292;28;20197;-52
2023/05/29 02:37:37;;;;;;;2.42;1.38;;;18.80;58.10;;;;;;5011867;28;20283;-54
2023/05/29 02:40:09;;;;;;;3.83;1.77;;;18.90;58.70;;;;;;5011830;28;20652;-52
2023/05/29 02:42:43;;;;;;;4.43;1.55;;;18.90;58.10;;;;;;5011618;28;20295;-54
2023/05/29 02:45:14;;;;;;;3.33;1.55;;;18.90;58.10;;;;;;5011353;28;20200;-54
2023/05/29 02:47:44;;;;;;;3.03;1.50;;;18.90;58.10;;;;;;5011689;28;20776;-55
2023/05/29 02:50:15;;;;;;;3.88;1.85;;;18.90;58.10;;;;;;5011842;28;20263;-54
2023/05/29 02:52:45;;;;;;;2.97;1.30;;;18.90;58.00;;;;;;5011715;28;20708;-55
2023/05/29 02:55:16;;;;;;;3.35;1.75;;;19.00;58.00;;;;;;5011520;28;20657;-56
2023/05/29 02:57:52;;;;;;;2.88;1.60;;;19.00;58.00;;;;;;5011808;28;20200;-55
2023/05/29 03:00:23;;;;;;;3.83;1.35;;;19.00;58.00;;;;;;5011651;28;20199;-53
2023/05/29 03:02:53;;;;;;;4.40;1.70;;;19.10;58.00;;;;;;5011548;28;20243;-56
2023/05/29 03:05:24;;;;;;;2.05;1.23;;;19.10;57.90;;;;;;5011361;28;20196;-54
2023/05/29 03:07:55;;;;;;;3.00;1.83;;;19.10;58.00;;;;;;5011437;28;20197;-51
2023/05/29 03:10:25;;;;;;;4.32;1.80;;;19.10;58.00;;;;;;5010884;28;20572;-53
2023/05/29 03:12:58;;;;;;;3.72;1.67;;;19.10;58.10;;;;;;5011195;28;20221;-54
2023/05/29 03:15:28;;;;;;;3.40;1.63;;;19.10;58.10;;;;;;5011730;28;20197;-55
2023/05/29 03:17:59;;;;;;;4.05;1.70;;;19.10;58.20;;;;;;5011357;28;20217;-54
2023/05/29 03:20:30;;;;;;;4.38;1.80;;;19.10;58.20;;;;;;5011225;28;20208;-53
2023/05/29 03:23:00;;;;;;;4.60;1.73;;;19.20;58.30;;;;;;5011073;28;20217;-53
2023/05/29 03:25:31;;;;;;;3.75;1.73;;;19.20;58.40;;;;;;5010965;28;20620;-51
2023/05/29 03:28:03;;;;;;;3.65;1.92;;;19.20;58.30;;;;;;5011327;28;20772;-53
2023/05/29 03:30:34;;;;;;;3.13;1.40;;;19.20;58.40;;;;;;5011395;28;20258;-57
2023/05/29 03:33:04;;;;;;;3.05;1.60;;;19.30;58.60;;;;;;5011027;28;20275;-57
2023/05/29 03:35:35;;;;;;;4.40;1.77;;;19.30;58.60;;;;;;5005119;28;20253;-56
2023/05/29 03:38:05;;;;;;;4.50;1.60;;;19.30;58.50;;;;;;5010115;28;20216;-56
2023/05/29 03:40:36;;;;;;;4.65;1.63;;;19.30;58.40;;;;;;5010577;28;20185;-55
2023/05/29 03:43:08;;;;;;;4.78;1.48;;;19.30;58.40;;;;;;5010202;28;20267;-57
2023/05/29 03:45:39;;;;;;;5.00;1.75;;;19.40;58.40;;;;;;5009907;28;20197;-56
2023/05/29 03:48:10;;;;;;;4.60;1.67;;;19.40;58.40;;;;;;5013855;28;20201;-58
2023/05/29 03:50:40;;;;;;;2.92;1.50;;;19.40;58.30;;;;;;5013905;28;20189;-57
2023/05/29 03:53:11;;;;;;;4.65;1.55;;;19.40;59.00;;;;;;5013692;28;20196;-57
2023/05/29 03:55:41;;;;;;;3.85;1.70;;;19.50;58.40;;;;;;5012264;28;20240;-56
2023/05/29 03:58:14;;;;;;;3.45;1.80;;;19.50;58.40;;;;;;5013657;28;20217;-56
2023/05/29 04:00:44;;;;;;;2.75;1.40;;;19.50;58.40;;;;;;5013353;28;20272;-55
2023/05/29 04:03:15;;;;;;;3.60;1.75;;;19.50;58.40;;;;;;5014280;28;20252;-56
2023/05/29 04:05:46;;;;;;;3.00;1.52;;;19.50;58.40;;;;;;5013212;28;20235;-56
2023/05/29 04:08:16;;;;;;;2.63;1.40;;;19.50;58.30;;;;;;5012022;28;20223;-55
2023/05/29 04:10:47;;;;;;;2.67;1.60;;;19.60;58.30;;;;;;5013048;28;20924;-54
2023/05/29 04:13:19;;;;;;;3.63;1.40;;;19.60;58.20;;;;;;5013099;28;20251;-57
2023/05/29 04:15:52;;;;;;;2.55;1.45;;;19.60;58.20;;;;;;5012661;28;20205;-54
2023/05/29 04:18:23;;;;;;;3.58;1.67;;;19.60;58.10;;;;;;5012913;28;20700;-56
2023/05/29 04:20:53;;;;;;;2.45;1.60;;;19.60;58.10;;;;;;5013141;28;20205;-54
2023/05/29 04:23:24;;;;;;;2.35;1.20;;;19.60;58.10;;;;;;5012544;28;20204;-55
2023/05/29 04:25:55;;;;;;;5.15;2.03;;;19.60;58.10;;;;;;5012876;28;20193;-55
2023/05/29 04:28:28;;;;;;;3.30;1.67;;;19.70;58.10;;;;;;5013438;28;20649;-56
2023/05/29 04:30:58;;;;;;;4.20;1.65;;;19.70;58.10;;;;;;5013372;28;20193;-55
2023/05/29 04:33:30;;;;;;;3.53;1.63;;;19.70;58.00;;;;;;5013146;28;20199;-57
2023/05/29 04:36:01;;;;;;;4.20;2.03;;;19.70;58.00;;;;;;5012762;28;20197;-57
2023/05/29 04:38:31;;;;;;;4.60;1.77;;;19.70;58.00;;;;;;5013181;28;20680;-57
2023/05/29 04:41:02;;;;;;;3.15;1.35;;;19.70;58.00;;;;;;5012429;28;20209;-58
2023/05/29 04:43:36;;;;;;;4.63;1.67;;;19.70;58.00;;;;;;5013541;28;20271;-56
2023/05/29 04:46:07;;;;;;;4.82;1.88;;;19.70;58.00;;;;;;5019791;28;20644;-57
2023/05/29 04:48:40;;;;;;;5.68;2.00;;;19.70;58.00;;;;;;5021354;28;20561;-57
2023/05/29 04:51:12;;;;;;;3.35;1.67;;;19.70;57.90;;;;;;5026778;28;20299;-56
2023/05/29 04:53:43;;;;;;;3.22;1.63;;;19.70;57.90;;;;;;5023282;28;20220;-56
2023/05/29 04:56:13;;;;;;;4.03;1.70;;;19.80;57.90;;;;;;5019710;28;20272;-57
2023/05/29 04:58:46;;;;;;;4.82;2.47;;;19.70;57.80;;;;;;5010211;28;20225;-57
2023/05/29 05:01:17;;;;;;;2.75;1.98;;;19.80;57.90;;;;;;5012420;28;20220;-57
2023/05/29 05:03:48;;;;;;;5.18;2.80;;;19.70;57.90;;;;;;5010336;28;20193;-58
2023/05/29 05:06:18;;;;;;;4.30;2.58;;;19.70;57.90;;;;;;5011122;28;20200;-57
2023/05/29 05:08:49;;;;;;;4.20;2.47;;;19.70;57.90;;;;;;5010775;28;20208;-55
2023/05/29 05:11:20;;;;;;;4.45;2.55;;;19.70;57.90;;;;;;5001079;28;20216;-55
2023/05/29 05:13:52;;;;;;;13.60;7.20;;;19.70;57.80;;;;;;5010284;28;20204;-54
2023/05/29 05:16:52;;;;;;;8.15;4.32;;;19.80;58.20;;;;;;5011351;28;20567;-51
2023/05/29 05:19:23;;;;;;;7.40;4.60;;;19.80;58.10;;;;;;5011094;28;20248;-51
2023/05/29 05:21:54;;;;;;;8.90;4.65;;;19.80;58.00;;;;;;5009671;28;20689;-55
2023/05/29 05:24:24;;;;;;;8.98;4.45;;;19.80;58.00;;;;;;5009812;28;20204;-56
2023/05/29 05:26:55;;;;;;;8.57;4.57;;;19.80;58.30;;;;;;5009824;28;20259;-53
2023/05/29 05:29:28;;;;;;;6.38;4.32;;;19.80;58.00;;;;;;5010259;28;20626;-56
2023/05/29 05:31:58;;;;;;;10.93;5.07;;;19.80;58.00;;;;;;5009601;28;20221;-55
2023/05/29 05:34:29;;;;;;;7.32;4.68;;;19.80;58.00;;;;;;5009442;28;20197;-54
2023/05/29 05:37:00;;;;;;;6.70;4.57;;;19.80;58.00;;;;;;5008897;28;20204;-51
2023/05/29 05:39:30;;;;;;;10.50;5.40;;;19.80;57.90;;;;;;5009908;28;20229;-51
2023/05/29 05:42:01;;;;;;;10.38;5.03;;;19.80;57.90;;;;;;5009427;28;20221;-54
2023/05/29 05:44:33;;;;;;;8.50;5.07;;;19.80;57.90;;;;;;5010465;28;20560;-50
2023/05/29 05:47:04;;;;;;;8.65;4.57;;;19.80;57.90;;;;;;5009466;28;20204;-52
2023/05/29 05:49:35;;;;;;;11.88;6.00;;;19.80;57.80;;;;;;5010249;28;20205;-53
2023/05/29 05:52:05;;;;;;;8.43;5.22;;;19.80;57.90;;;;;;5009372;28;20224;-55
2023/05/29 05:54:36;;;;;;;13.43;6.90;;;19.80;57.90;;;;;;5009908;28;20208;-55
2023/05/29 05:57:07;;;;;;;10.52;5.85;;;19.70;57.90;;;;;;5009327;28;20216;-55
2023/05/29 05:59:39;;;;;;;11.95;5.45;;;19.80;57.90;;;;;;5009210;28;20230;-53
2023/05/29 06:02:10;;;;;;;8.27;5.30;;;19.70;57.90;;;;;;5009039;28;20834;-51
2023/05/29 06:04:41;;;;;;;9.25;5.32;;;19.80;57.90;;;;;;5009268;28;20255;-48
2023/05/29 06:07:12;;;;;;;8.77;5.75;;;19.70;57.90;;;;;;5009705;28;20207;-53
2023/05/29 06:09:42;;;;;;;8.95;5.28;;;19.70;57.90;;;;;;5007436;28;20197;-51
2023/05/29 06:12:13;;;;;;;8.93;5.82;;;19.70;57.80;;;;;;5000930;28;20216;-56
2023/05/29 06:14:46;;;;;;;8.70;5.47;;;19.70;57.80;;;;;;5009243;28;20201;-54
2023/05/29 06:17:16;;;;;;;10.50;5.50;;;19.70;57.80;;;;;;5008657;28;20212;-51
2023/05/29 06:19:48;;;;;;;10.55;5.32;;;19.70;57.80;;;;;;4901637;28;3102880;-53
2023/05/29 06:22:19;;;;;;;7.55;5.18;;;19.70;57.70;;;;;;5008992;28;20217;-55
2023/05/29 06:24:49;;;;;;;6.95;4.90;;;19.70;57.70;;;;;;5009703;28;20205;-55
2023/05/29 06:27:21;;;;;;;7.80;5.40;;;19.70;57.80;;;;;;5009899;28;20193;-55
2023/05/29 06:29:54;;;;;;;6.80;4.93;;;19.70;57.70;;;;;;5010126;28;20288;-55
2023/05/29 06:32:24;;;;;;;7.07;5.40;;;19.70;57.70;;;;;;5009632;28;20274;-55
2023/05/29 06:34:55;;;;;;;8.77;5.03;;;19.70;57.70;;;;;;5009644;28;20201;-55
2023/05/29 06:37:26;;;;;;;7.88;4.78;;;19.70;57.70;;;;;;5010129;28;20192;-53
2023/05/29 06:39:56;;;;;;;8.55;5.10;;;19.70;57.70;;;;;;5008994;28;20235;-55
2023/05/29 06:42:27;;;;;;;8.70;4.82;;;19.70;57.70;;;;;;5009706;28;20677;-55
2023/05/29 06:45:00;;;;;;;6.93;4.65;;;19.70;57.70;;;;;;5009389;28;20355;-54
2023/05/29 06:47:31;;;;;;;7.45;4.68;;;19.70;57.70;;;;;;5010219;28;20650;-54
2023/05/29 06:50:01;;;;;;;7.57;4.80;;;19.70;57.70;;;;;;5009857;28;20212;-55
2023/05/29 06:52:32;;;;;;;7.20;4.93;;;19.70;57.70;;;;;;5010087;28;20220;-55
2023/05/29 06:55:03;;;;;;;7.32;4.90;;;19.60;57.60;;;;;;5008545;28;20204;-61
2023/05/29 06:57:33;;;;;;;8.05;4.63;;;19.60;57.60;;;;;;5009969;28;20193;-54
2023/05/29 07:00:08;;;;;;;8.23;4.78;;;19.70;57.70;;;;;;5009380;28;20236;-53
2023/05/29 07:02:39;;;;;;;8.93;4.82;;;19.60;57.60;;;;;;5009542;28;20683;-54
2023/05/29 07:05:10;;;;;;;6.00;4.63;;;19.60;57.60;;;;;;5009097;28;20259;-54
2023/05/29 07:07:40;;;;;;;7.85;4.93;;;19.60;57.60;;;;;;5010122;28;20201;-52
2023/05/29 07:10:12;;;;;;;8.95;4.50;;;19.60;57.60;;;;;;5009437;28;20676;-53
2023/05/29 07:12:42;;;;;;;7.32;4.88;;;19.60;57.60;;;;;;5009134;28;20225;-56
2023/05/29 07:15:15;;;;;;;6.72;4.80;;;19.60;57.60;;;;;;5009105;28;20200;-55
2023/05/29 07:17:46;;;;;;;6.22;4.40;;;19.60;57.60;;;;;;5008711;28;20223;-56
2023/05/29 07:20:18;;;;;;;5.70;4.32;;;19.60;57.60;;;;;;5009069;28;20235;-55
2023/05/29 07:22:49;;;;;;;6.03;3.88;;;19.60;57.60;;;;;;5010954;28;20223;-51
2023/05/29 07:25:20;;;;;;;7.70;4.68;;;19.60;57.50;;;;;;5012752;28;20212;-54
2023/05/29 07:27:50;;;;;;;8.35;4.60;;;19.60;57.50;;;;;;5012510;28;20284;-53
2023/05/29 07:30:23;;;;;;;7.75;4.65;;;19.60;57.60;;;;;;5012231;28;20200;-55
2023/05/29 07:32:54;;;;;;;7.00;4.10;;;19.50;57.50;;;;;;5012036;28;20227;-52
2023/05/29 07:35:24;;;;;;;6.18;4.20;;;19.50;57.60;;;;;;5012782;28;20764;-54
2023/05/29 07:37:55;;;;;;;6.88;4.28;;;19.50;57.50;;;;;;5012618;28;20591;-52
2023/05/29 07:40:26;;;;;;;5.97;4.35;;;19.50;57.60;;;;;;5012531;28;20224;-56
2023/05/29 07:42:56;;;;;;;7.72;5.13;;;19.50;57.60;;;;;;5013882;28;20606;-53
2023/05/29 07:45:29;;;;;;;9.98;5.53;;;19.50;57.90;;;;;;5014636;28;20197;-52
2023/05/29 07:48:00;;;;;;;7.20;4.30;;;19.50;58.00;;;;;;5014647;28;20212;-53
2023/05/29 07:50:30;;;;;;;7.60;4.75;;;19.50;57.90;;;;;;5014454;28;20200;-53
2023/05/29 07:53:01;;;;;;;7.25;4.40;;;19.50;57.80;;;;;;5014711;28;20220;-55
2023/05/29 07:55:32;;;;;;;6.60;4.18;;;19.50;57.80;;;;;;5014296;28;20192;-55
2023/05/29 07:58:02;;;;;;;6.57;4.10;;;19.50;57.80;;;;;;5014097;28;20596;-55
2023/05/29 08:00:36;;;;;;;6.78;4.45;;;19.50;57.80;;;;;;5014183;28;20232;-55
2023/05/29 08:03:07;;;;;;;6.72;4.43;;;19.50;57.80;;;;;;5013934;28;20280;-55
2023/05/29 08:05:37;;;;;;;6.25;4.55;;;19.50;57.70;;;;;;5013413;28;20197;-56
2023/05/29 08:08:08;;;;;;;6.05;4.28;;;19.50;57.70;;;;;;5014149;28;20672;-53
2023/05/29 08:10:39;;;;;;;7.63;4.43;;;19.50;57.70;;;;;;5014106;28;20240;-55
2023/05/29 08:13:09;;;;;;;6.57;4.20;;;19.50;57.70;;;;;;5013678;28;20197;-54
2023/05/29 08:15:42;;;;;;;6.72;4.13;;;19.50;57.70;;;;;;5013324;28;20660;-56
2023/05/29 08:18:12;;;;;;;6.82;4.38;;;19.50;57.70;;;;;;5014388;28;20868;-54
2023/05/29 08:20:44;;;;;;;6.43;4.20;;;19.50;57.70;;;;;;5013571;28;20225;-55
2023/05/29 08:23:15;;;;;;;5.18;3.90;;;19.50;57.70;;;;;;5013859;28;20203;-56
2023/05/29 08:25:47;;;;;;;5.93;4.20;;;19.40;57.60;;;;;;5013854;28;20201;-55
2023/05/29 08:28:19;;;;;;;4.43;3.70;;;19.40;57.60;;;;;;5013381;28;20232;-54
2023/05/29 08:30:51;;;;;;;6.20;3.80;;;19.40;57.60;;;;;;5013579;28;20287;-53
2023/05/29 08:33:22;;;;;;;6.53;4.30;;;19.40;57.60;;;;;;5013494;28;20669;-54
2023/05/29 08:35:53;;;;;;;6.00;3.75;;;19.40;57.60;;;;;;5013978;28;20212;-55
2023/05/29 08:38:25;;;;;;;7.13;4.13;;;19.40;57.60;;;;;;5013943;28;20247;-55
2023/05/29 08:40:56;;;;;;;4.38;3.60;;;19.40;57.60;;;;;;5013465;28;20228;-54
2023/05/29 08:43:28;;;;;;;5.38;3.85;;;19.40;57.60;;;;;;5013256;28;20215;-53
2023/05/29 08:46:04;;;;;;;4.72;3.90;;;19.40;57.60;;;;;;5013995;28;20200;-52
2023/05/29 08:48:35;;;;;;;7.00;3.80;;;19.40;57.60;;;;;;5011930;28;20197;-53
2023/05/29 08:51:07;;;;;;;5.97;3.92;;;19.40;57.60;;;;;;5011438;28;20219;-51
2023/05/29 08:53:38;;;;;;;5.82;3.83;;;19.40;57.70;;;;;;5011367;28;20204;-57
2023/05/29 08:56:09;;;;;;;4.95;3.55;;;19.30;57.60;;;;;;5011604;28;20199;-57
2023/05/29 08:58:41;;;;;;;5.55;3.60;;;19.30;57.60;;;;;;5009446;28;20646;-57
2023/05/29 09:01:13;;;;;;;6.05;3.85;;;19.30;57.70;;;;;;5011015;28;20232;-56
2023/05/29 09:03:44;;;;;;;4.38;3.60;;;19.30;57.70;;;;;;5010483;28;20208;-57
2023/05/29 09:06:15;;;;;;;4.50;4.00;;;19.30;57.70;;;;;;5011063;28;20200;-58
2023/05/29 09:08:46;;;;;;;5.88;3.83;;;19.30;57.70;;;;;;5011351;28;20208;-56
2023/05/29 09:11:17;;;;;;;6.15;4.03;;;19.30;57.70;;;;;;5008874;28;20223;-57
2023/05/29 09:13:48;;;;;;;5.05;4.20;;;19.30;57.70;;;;;;5010470;28;20566;-59
2023/05/29 09:16:22;;;;;;;5.32;3.83;;;19.30;57.70;;;;;;5011229;28;20200;-58
2023/05/29 09:18:52;;;;;;;4.70;3.60;;;19.30;57.70;;;;;;5011061;28;20197;-58
2023/05/29 09:21:33;;;;;;;4.85;3.25;;;19.20;57.60;;;;;;5010862;28;20229;-58
2023/05/29 09:24:08;;;;;;;5.10;3.97;;;19.30;57.70;;;;;;5004669;28;20284;-58
2023/05/29 09:26:38;;;;;;;5.38;3.88;;;19.30;57.70;;;;;;5010262;28;20204;-58
2023/05/29 09:29:12;;;;;;;3.63;3.20;;;19.20;57.60;;;;;;5009170;28;20185;-59
2023/05/29 09:31:49;;;;;;;4.93;3.95;;;19.30;57.70;;;;;;5010466;28;20275;-59
2023/05/29 09:34:20;;;;;;;6.95;3.50;;;19.20;57.60;;;;;;5011162;28;20196;-59
2023/05/29 09:36:51;;;;;;;4.40;4.00;;;19.20;57.60;;;;;;5011000;28;20263;-59
2023/05/29 09:39:22;;;;;;;3.92;3.20;;;19.20;57.60;;;;;;5011193;28;20193;-58
2023/05/29 09:41:56;;;;;;;4.88;3.40;;;19.20;57.60;;;;;;5002616;28;20292;-58
2023/05/29 09:44:29;;;;;;;4.15;3.22;;;19.20;57.70;;;;;;5009899;28;20203;-59
2023/05/29 09:47:04;;;;;;;5.97;3.40;;;19.10;57.60;;;;;;5010746;28;20650;-58
2023/05/29 09:49:38;;;;;;;4.82;3.33;;;19.10;57.60;;;;;;5009236;28;20192;-58
2023/05/29 09:52:09;;;;;;;3.95;3.40;;;19.10;57.60;;;;;;5009981;28;20240;-58
2023/05/29 09:54:40;;;;;;;3.50;3.08;;;19.10;57.60;;;;;;5008398;28;20197;-58
2023/05/29 09:57:12;;;;;;;4.70;3.30;;;19.10;57.70;;;;;;5009486;28;20204;-56
2023/05/29 09:59:48;;;;;;;4.13;3.20;;;19.10;57.60;;;;;;5010172;28;20192;-58
2023/05/29 10:02:20;;;;;;;3.85;3.13;;;19.10;57.60;;;;;;5009810;28;20307;-58
2023/05/29 10:04:52;;;;;;;3.92;3.25;;;19.10;57.70;;;;;;5002411;28;20201;-58
2023/05/29 10:07:31;;;;;;;3.45;3.15;;;19.10;57.60;;;;;;5010461;28;20201;-59
2023/05/29 10:10:05;;;;;;;4.38;3.20;;;19.10;57.60;;;;;;5003550;28;20200;-58
2023/05/29 10:12:38;;;;;;;3.55;2.85;;;19.10;57.70;;;;;;5010023;28;20735;-58
2023/05/29 10:15:14;;;;;;;3.20;2.90;;;19.00;57.60;;;;;;5009233;28;20767;-58
2023/05/29 10:17:53;;;;;;;5.25;3.08;;;19.00;57.60;;;;;;5008486;28;20204;-57
2023/05/29 10:20:25;;;;;;;4.20;3.42;;;19.00;57.60;;;;;;5010034;28;20310;-59
2023/05/29 10:22:58;;;;;;;4.20;3.10;;;19.00;57.60;;;;;;5003093;28;20216;-58
2023/05/29 10:25:32;;;;;;;3.70;2.78;;;19.00;57.60;;;;;;5009030;28;20227;-59
2023/05/29 10:28:04;;;;;;;3.33;2.70;;;19.00;57.60;;;;;;5009885;28;20208;-59
2023/05/29 10:30:40;;;;;;;4.78;3.00;;;19.00;57.60;;;;;;5009555;28;20201;-59
2023/05/29 10:33:33;;;;;;;4.05;3.60;;;19.00;57.60;;;;;;5010287;28;20260;-59
2023/05/29 10:36:13;;;;;;;3.72;2.70;;;18.90;57.60;;;;;;5005161;28;20203;-59
2023/05/29 10:38:47;;;;;;;2.92;2.63;;;19.00;57.60;;;;;;5009470;28;20263;-58
2023/05/29 10:41:39;;;;;;;4.93;3.40;;;18.90;57.60;;;;;;5009193;28;20228;-59
2023/05/29 10:44:43;;;;;;;3.90;3.28;;;18.90;57.60;;;;;;5003935;28;20192;-59
2023/05/29 10:47:14;;;;;;;3.65;2.92;;;18.90;57.50;;;;;;5009967;28;20200;-59
2023/05/29 10:50:01;;;;;;;3.40;2.92;;;18.90;57.50;;;;;;5009490;28;20207;-59
2023/05/29 10:52:35;;;;;;;3.22;2.83;;;18.90;57.50;;;;;;5008818;28;20229;-59
2023/05/29 10:55:06;;;;;;;3.17;2.85;;;18.90;57.50;;;;;;5008751;28;20208;-59
2023/05/29 10:57:37;;;;;;;3.47;2.75;;;18.80;57.50;;;;;;5008090;28;20211;-59
2023/05/29 11:00:13;;;;;;;3.63;2.97;;;18.80;57.60;;;;;;5008663;28;20200;-59
2023/05/29 11:02:44;;;;;;;3.35;2.63;;;18.80;57.60;;;;;;5007669;28;20692;-59
2023/05/29 11:05:26;;;;;;;3.83;3.17;;;18.80;57.60;;;;;;5009348;28;20189;-59
2023/05/29 11:08:02;;;;;;;4.35;2.90;;;18.80;57.60;;;;;;5002362;28;20199;-59
2023/05/29 11:10:59;;;;;;;3.28;2.95;;;18.70;57.50;;;;;;5008706;28;20275;-60
2023/05/29 11:13:34;;;;;;;3.25;2.60;;;18.70;57.60;;;;;;5009044;28;20209;-59
2023/05/29 11:16:15;;;;;;;3.70;2.80;;;18.80;57.50;;;;;;5009314;28;20645;-59
2023/05/29 11:18:47;;;;;;;2.72;2.53;;;18.70;57.50;;;;;;5009507;28;20244;-58
2023/05/29 11:21:32;;;;;;;3.13;2.80;;;18.70;57.50;;;;;;5009174;28;20233;-59
2023/05/29 11:24:04;;;;;;;2.85;2.45;;;18.70;57.50;;;;;;5009671;28;20215;-59
2023/05/29 11:26:36;;;;;;;2.75;2.45;;;18.70;57.60;;;;;;5008569;28;20704;-59
2023/05/29 11:29:10;;;;;;;3.63;2.63;;;18.70;57.60;;;;;;5009527;28;20216;-58
2023/05/29 11:31:43;;;;;;;3.22;2.75;;;18.70;57.60;;;;;;5009400;28;20222;-58
2023/05/29 11:34:18;;;;;;;3.20;2.70;;;18.60;57.50;;;;;;5009148;28;20201;-59
2023/05/29 11:36:50;;;;;;;3.90;2.30;;;18.60;57.50;;;;;;5008819;28;20267;-59
2023/05/29 11:39:21;;;;;;;2.88;2.58;;;18.60;57.60;;;;;;5009294;28;20205;-59
2023/05/29 11:41:54;;;;;;;3.30;2.65;;;18.60;57.50;;;;;;5008942;28;20286;-59
2023/05/29 11:44:27;;;;;;;3.33;2.50;;;18.60;57.60;;;;;;5009286;28;20599;-60
2023/05/29 11:47:05;;;;;;;2.92;2.58;;;18.50;57.50;;;;;;5008029;28;20197;-59
2023/05/29 11:49:36;;;;;;;3.42;2.47;;;18.60;57.60;;;;;;5008846;28;20609;-59
2023/05/29 11:52:13;;;;;;;3.67;2.88;;;18.50;57.50;;;;;;5008795;28;20700;-59
2023/05/29 11:54:46;;;;;;;2.80;2.42;;;18.60;57.50;;;;;;5009182;28;20556;-59
2023/05/29 11:57:22;;;;;;;3.15;2.50;;;18.50;57.50;;;;;;5010372;28;20200;-59
2023/05/29 11:59:58;;;;;;;3.17;2.63;;;18.60;57.60;;;;;;5010677;28;20331;-60
2023/05/29 12:02:32;;;;;;;3.03;2.40;;;18.50;57.50;;;;;;5008443;28;20274;-60
2023/05/29 12:05:07;;;;;;;2.92;2.67;;;18.50;57.50;;;;;;5007743;28;20276;-60
2023/05/29 12:07:39;;;;;;;2.97;2.55;;;18.50;57.50;;;;;;5010167;28;20193;-59
2023/05/29 12:10:14;;;;;;;2.38;2.17;;;18.50;57.50;;;;;;5012410;28;20193;-59
2023/05/29 12:12:49;;;;;;;2.90;2.35;;;18.50;57.60;;;;;;5012251;28;20220;-59
2023/05/29 12:15:20;;;;;;;2.58;2.30;;;18.50;57.60;;;;;;5013078;28;20203;-59
2023/05/29 12:17:51;;;;;;;2.47;2.28;;;18.50;57.60;;;;;;5013097;28;20193;-59
2023/05/29 12:20:24;;;;;;;3.88;2.50;;;18.50;57.60;;;;;;5010786;28;20201;-59
2023/05/29 12:23:01;;;;;;;2.55;2.25;;;18.40;57.60;;;;;;5013323;28;20216;-60
2023/05/29 12:25:32;;;;;;;2.42;2.17;;;18.40;57.60;;;;;;5011863;28;20276;-59
2023/05/29 12:28:03;;;;;;;3.10;2.28;;;18.40;57.60;;;;;;5010406;28;20244;-60
2023/05/29 12:30:33;;;;;;;2.80;2.50;;;18.40;57.60;;;;;;5012911;28;20196;-60
2023/05/29 12:33:06;;;;;;;2.90;2.60;;;18.50;57.60;;;;;;5010896;28;20622;-60
2023/05/29 12:35:36;;;;;;;2.53;2.10;;;18.40;57.60;;;;;;5013266;28;20189;-59
2023/05/29 12:38:10;;;;;;;3.00;2.40;;;18.50;57.60;;;;;;5011370;28;20189;-59
2023/05/29 12:40:40;;;;;;;2.40;1.98;;;18.50;57.60;;;;;;5013237;28;20249;-60
2023/05/29 12:43:11;;;;;;;2.60;2.00;;;18.40;57.60;;;;;;5013623;28;20617;-59
2023/05/29 12:45:42;;;;;;;3.05;2.40;;;18.50;57.60;;;;;;5013341;28;20196;-59
2023/05/29 12:48:13;;;;;;;2.58;2.28;;;18.50;57.70;;;;;;5013185;28;20217;-59
2023/05/29 12:50:44;;;;;;;2.42;2.22;;;18.40;57.60;;;;;;5010648;28;20239;-59
2023/05/29 12:53:17;;;;;;;2.42;2.22;;;18.40;57.60;;;;;;5013495;28;20247;-59
2023/05/29 12:55:49;;;;;;;2.53;2.10;;;18.40;57.60;;;;;;5011368;28;20267;-59
2023/05/29 12:58:20;;;;;;;2.50;2.20;;;18.50;57.60;;;;;;5013181;28;20195;-59
2023/05/29 13:00:55;;;;;;;2.75;2.15;;;18.40;57.60;;;;;;5012808;28;20200;-59
2023/05/29 13:03:26;;;;;;;2.50;2.20;;;18.50;57.60;;;;;;5010654;28;20188;-59
2023/05/29 13:05:56;;;;;;;2.45;2.25;;;18.50;57.60;;;;;;5013056;28;20197;-59
2023/05/29 13:08:29;;;;;;;2.17;1.98;;;18.40;57.60;;;;;;5013011;28;20201;-59
2023/05/29 13:11:00;;;;;;;2.72;2.30;;;18.50;57.60;;;;;;5013630;28;20201;-59